Time;durP1;ratioP1;P1;durP2;ratioP2;P2;SDS_P1;SDS_P2;PMS_P1;PMS_P2;Temp;Humidity;BMP_temperature;BMP_pressure;BME280_temperature;BME280_humidity;BME280_pressure;Samples;Min_cycle;Max_cycle;Signal;HPM_P1;HPM_P2
2020/12/03 00:02:02;;;;;;;26.27;17.67;;;5.20;41.90;;;;;;5069802;28;20195;-69
2020/12/03 00:04:28;;;;;;;21.27;15.83;;;5.20;40.90;;;;;;5069938;28;20174;-68
2020/12/03 00:06:56;;;;;;;25.97;18.90;;;5.40;40.60;;;;;;5069804;28;21341;-69
2020/12/03 00:09:22;;;;;;;23.20;16.23;;;5.30;40.50;;;;;;5069695;28;20220;-68
2020/12/03 00:11:57;;;;;;;26.87;16.83;;;5.20;41.10;;;;;;5069738;28;20479;-67
2020/12/03 00:14:22;;;;;;;25.13;17.50;;;5.00;41.70;;;;;;5069795;28;20412;-67
2020/12/03 00:16:50;;;;;;;23.10;15.83;;;5.10;40.70;;;;;;5069586;28;20409;-67
2020/12/03 00:19:17;;;;;;;23.50;16.80;;;5.10;40.60;;;;;;5069492;28;20186;-68
2020/12/03 00:21:50;;;;;;;22.20;16.67;;;4.80;41.10;;;;;;5069610;28;20435;-67
2020/12/03 00:24:20;;;;;;;23.33;15.87;;;4.80;42.00;;;;;;5068659;28;20478;-67
2020/12/03 00:26:45;;;;;;;25.70;16.27;;;5.00;41.20;;;;;;5069534;28;20475;-68
2020/12/03 00:29:11;;;;;;;23.33;17.40;;;4.90;41.20;;;;;;5069304;28;20410;-68
2020/12/03 00:31:37;;;;;;;22.53;16.17;;;4.90;42.30;;;;;;5069552;28;20199;-66
2020/12/03 00:34:07;;;;;;;21.53;16.73;;;4.90;42.60;;;;;;5069470;28;20176;-69
2020/12/03 00:36:33;;;;;;;23.77;16.53;;;5.20;41.20;;;;;;5069318;28;20182;-69
2020/12/03 00:39:00;;;;;;;23.87;17.80;;;5.30;40.30;;;;;;5069299;28;20416;-65
2020/12/03 00:41:26;;;;;;;25.07;18.70;;;5.30;40.60;;;;;;5069215;28;20479;-66
2020/12/03 00:43:51;;;;;;;24.20;18.63;;;5.40;40.20;;;;;;5069386;28;20405;-68
2020/12/03 00:46:17;;;;;;;22.90;17.23;;;5.20;40.30;;;;;;5069273;28;20659;-70
2020/12/03 00:48:42;;;;;;;27.47;17.07;;;4.90;41.10;;;;;;5069162;28;20171;-67
2020/12/03 00:51:11;;;;;;;24.50;19.10;;;4.80;41.90;;;;;;5069250;28;20202;-66
2020/12/03 00:53:40;;;;;;;26.60;18.27;;;4.90;42.90;;;;;;5069320;28;20585;-68
2020/12/03 00:56:06;;;;;;;23.13;16.00;;;5.30;42.20;;;;;;5069095;28;20787;-67
2020/12/03 00:58:31;;;;;;;20.17;16.30;;;5.40;41.10;;;;;;5068992;28;20978;-66
2020/12/03 01:00:57;;;;;;;22.43;15.40;;;5.50;40.60;;;;;;5069107;28;20417;-67
2020/12/03 01:03:22;;;;;;;27.13;18.13;;;5.50;40.00;;;;;;5069226;28;20570;-66
2020/12/03 01:05:48;;;;;;;27.00;18.53;;;5.50;40.20;;;;;;5068992;28;20234;-66
2020/12/03 01:08:13;;;;;;;24.83;18.67;;;5.40;40.00;;;;;;5068911;28;20287;-68
2020/12/03 01:10:39;;;;;;;26.60;18.47;;;5.20;40.20;;;;;;5068974;28;20611;-65
2020/12/03 01:13:05;;;;;;;24.93;18.77;;;4.90;40.90;;;;;;5069346;28;20171;-67
2020/12/03 01:15:31;;;;;;;22.37;17.80;;;4.90;42.10;;;;;;5069266;28;20178;-67
2020/12/03 01:17:56;;;;;;;27.23;18.70;;;5.20;41.90;;;;;;5068901;28;21071;-67
2020/12/03 01:20:25;;;;;;;28.47;20.23;;;5.30;41.10;;;;;;5069020;28;20168;-68
2020/12/03 01:22:51;;;;;;;26.60;16.70;;;5.30;41.00;;;;;;5068901;28;20196;-68
2020/12/03 01:25:18;;;;;;;24.50;17.63;;;5.40;40.60;;;;;;5069099;28;20409;-68
2020/12/03 01:27:44;;;;;;;25.20;18.07;;;5.40;40.40;;;;;;5068966;28;20510;-65
2020/12/03 01:30:11;;;;;;;25.53;18.30;;;5.40;40.40;;;;;;5068999;28;20457;-68
2020/12/03 01:32:37;;;;;;;23.23;17.53;;;5.40;40.50;;;;;;5068841;28;20417;-67
2020/12/03 01:35:05;;;;;;;22.40;17.17;;;5.40;40.30;;;;;;5069892;28;20782;-68
2020/12/03 01:37:30;;;;;;;25.57;18.63;;;5.40;40.50;;;;;;5072501;28;20879;-68
2020/12/03 01:39:56;;;;;;;24.70;18.57;;;5.40;40.80;;;;;;5072605;28;20439;-68
2020/12/03 01:42:22;;;;;;;25.53;17.60;;;5.50;40.40;;;;;;5072540;28;20223;-66
2020/12/03 01:44:50;;;;;;;25.90;17.67;;;5.50;40.00;;;;;;5072425;28;20751;-68
2020/12/03 01:47:27;;;;;;;24.07;17.77;;;5.60;40.10;;;;;;5072267;28;20452;-68
2020/12/03 01:49:52;;;;;;;23.77;18.77;;;5.60;40.00;;;;;;5072478;28;20409;-67
2020/12/03 01:52:19;;;;;;;24.23;18.80;;;5.50;40.10;;;;;;5072277;28;20429;-67
2020/12/03 01:54:45;;;;;;;25.13;18.60;;;5.50;39.90;;;;;;5072298;28;20445;-67
2020/12/03 01:57:13;;;;;;;23.80;17.80;;;5.60;39.90;;;;;;5072143;28;20438;-68
2020/12/03 01:59:44;;;;;;;26.43;17.80;;;5.60;40.00;;;;;;5072229;28;20415;-67
2020/12/03 02:02:13;;;;;;;27.10;18.07;;;5.60;39.10;;;;;;5072145;28;20429;-68
2020/12/03 02:04:38;;;;;;;22.07;17.70;;;5.60;39.60;;;;;;5072160;28;20920;-68
2020/12/03 02:07:07;;;;;;;24.00;18.40;;;5.50;39.40;;;;;;5071838;28;20527;-66
2020/12/03 02:09:33;;;;;;;29.37;20.27;;;5.60;40.40;;;;;;5072208;28;20178;-68
2020/12/03 02:11:59;;;;;;;25.23;17.63;;;5.60;40.20;;;;;;5071968;28;20426;-68
2020/12/03 02:14:25;;;;;;;25.73;20.00;;;5.50;40.50;;;;;;5072001;28;20176;-68
2020/12/03 02:16:51;;;;;;;25.17;19.50;;;5.60;40.60;;;;;;5071954;28;20415;-68
2020/12/03 02:19:26;;;;;;;32.03;19.70;;;5.40;40.80;;;;;;5071774;28;20414;-67
2020/12/03 02:22:02;;;;;;;26.37;19.57;;;5.40;40.80;;;;;;5071892;28;20204;-68
2020/12/03 02:24:33;;;;;;;24.90;18.27;;;5.40;40.90;;;;;;5071622;28;20494;-68
2020/12/03 02:27:00;;;;;;;24.73;18.07;;;5.40;40.90;;;;;;5071649;28;20471;-68
2020/12/03 02:29:26;;;;;;;24.87;20.03;;;5.50;40.90;;;;;;5071750;28;20409;-67
2020/12/03 02:31:52;;;;;;;24.47;18.40;;;5.50;40.80;;;;;;5071543;28;20437;-68
2020/12/03 02:34:18;;;;;;;25.03;17.43;;;5.20;40.70;;;;;;5071575;28;20409;-68
2020/12/03 02:36:50;;;;;;;27.00;20.20;;;5.00;41.80;;;;;;5071588;28;20421;-67
2020/12/03 02:39:16;;;;;;;22.83;16.90;;;5.00;41.00;;;;;;5071431;28;20405;-68
2020/12/03 02:41:41;;;;;;;21.53;17.23;;;4.90;41.40;;;;;;5071500;28;20803;-67
2020/12/03 02:44:07;;;;;;;24.23;17.10;;;4.90;41.10;;;;;;5071491;28;20187;-67
2020/12/03 02:46:32;;;;;;;22.53;17.63;;;5.10;40.50;;;;;;5070402;28;20203;-68
2020/12/03 02:48:57;;;;;;;27.50;19.40;;;5.10;40.50;;;;;;5071145;28;20665;-67
2020/12/03 02:51:23;;;;;;;25.77;19.53;;;4.90;40.90;;;;;;5071249;28;20199;-68
2020/12/03 02:53:49;;;;;;;26.77;19.03;;;4.90;41.70;;;;;;5071326;28;20175;-67
2020/12/03 02:56:14;;;;;;;23.80;18.60;;;4.90;41.90;;;;;;5071267;28;20183;-67
2020/12/03 02:58:40;;;;;;;30.17;20.87;;;4.80;42.00;;;;;;5070980;28;20190;-66
2020/12/03 03:01:05;;;;;;;25.07;19.53;;;4.80;41.90;;;;;;5071021;28;20555;-68
2020/12/03 03:03:31;;;;;;;24.27;17.00;;;4.90;42.50;;;;;;5071118;28;20203;-67
2020/12/03 03:05:56;;;;;;;31.83;19.70;;;4.80;42.00;;;;;;5070934;28;20661;-68
2020/12/03 03:08:23;;;;;;;27.00;20.37;;;4.40;42.60;;;;;;5070758;28;20175;-69
2020/12/03 03:10:48;;;;;;;28.73;21.23;;;4.10;44.10;;;;;;5070831;28;20178;-67
2020/12/03 03:13:14;;;;;;;26.27;19.20;;;4.20;44.40;;;;;;5070878;28;20504;-67
2020/12/03 03:15:39;;;;;;;31.93;21.03;;;3.90;44.80;;;;;;5070754;28;20214;-66
2020/12/03 03:18:05;;;;;;;34.60;21.40;;;4.00;45.20;;;;;;5070633;28;20179;-67
2020/12/03 03:20:30;;;;;;;28.67;19.33;;;4.10;45.00;;;;;;5070628;28;20236;-68
2020/12/03 03:22:56;;;;;;;29.90;20.70;;;4.30;44.30;;;;;;5070547;28;20575;-68
2020/12/03 03:25:21;;;;;;;28.53;19.87;;;4.10;44.00;;;;;;5070566;28;20187;-68
2020/12/03 03:27:47;;;;;;;26.30;19.53;;;4.00;44.70;;;;;;5070485;28;20547;-69
2020/12/03 03:30:12;;;;;;;29.37;21.90;;;4.00;44.60;;;;;;5070581;28;20175;-69
2020/12/03 03:32:38;;;;;;;34.30;22.13;;;3.90;44.80;;;;;;5070466;28;20195;-66
2020/12/03 03:35:05;;;;;;;31.63;22.60;;;4.00;44.30;;;;;;5070600;28;20206;-68
2020/12/03 03:37:32;;;;;;;30.07;21.10;;;3.70;44.90;;;;;;5070361;28;20560;-68
2020/12/03 03:40:00;;;;;;;36.47;22.30;;;3.90;45.40;;;;;;5070383;28;20445;-69
2020/12/03 03:42:26;;;;;;;36.27;21.33;;;4.00;44.40;;;;;;5070363;28;20449;-68
2020/12/03 03:44:51;;;;;;;30.57;22.83;;;4.00;45.70;;;;;;5070281;28;20414;-68
2020/12/03 03:47:17;;;;;;;31.70;22.73;;;4.10;44.10;;;;;;5070018;28;20211;-69
2020/12/03 03:49:42;;;;;;;28.57;21.57;;;3.90;44.30;;;;;;5070121;28;20186;-67
2020/12/03 03:52:08;;;;;;;36.17;23.33;;;3.90;44.60;;;;;;5069993;28;20199;-68
2020/12/03 03:54:33;;;;;;;29.70;21.90;;;4.00;44.80;;;;;;5070062;28;20179;-68
2020/12/03 03:56:59;;;;;;;31.23;22.20;;;4.00;44.70;;;;;;5069893;28;20193;-66
2020/12/03 03:59:24;;;;;;;31.70;22.73;;;4.20;44.30;;;;;;5069744;28;20669;-68
2020/12/03 04:01:50;;;;;;;29.13;20.77;;;4.20;43.60;;;;;;5069815;28;20877;-68
2020/12/03 04:04:15;;;;;;;30.73;23.00;;;4.30;43.40;;;;;;5069822;28;20201;-68
2020/12/03 04:06:41;;;;;;;27.53;21.43;;;4.40;42.90;;;;;;5069917;28;20200;-67
2020/12/03 04:09:06;;;;;;;28.90;20.10;;;4.50;42.40;;;;;;5069609;28;20588;-69
2020/12/03 04:11:32;;;;;;;30.23;20.53;;;4.40;42.50;;;;;;5069810;28;20198;-68
2020/12/03 04:13:57;;;;;;;27.83;21.80;;;4.50;42.80;;;;;;5069616;28;20206;-67
2020/12/03 04:16:23;;;;;;;26.67;20.60;;;4.40;42.50;;;;;;5069633;28;20175;-67
2020/12/03 04:18:48;;;;;;;32.47;22.20;;;4.50;42.50;;;;;;5069460;28;20171;-68
2020/12/03 04:21:16;;;;;;;29.00;19.90;;;4.60;41.90;;;;;;5069419;28;20681;-65
2020/12/03 04:23:42;;;;;;;24.43;19.57;;;4.80;41.60;;;;;;5069472;28;20198;-68
2020/12/03 04:26:10;;;;;;;26.20;20.47;;;4.80;41.30;;;;;;5069446;28;20506;-67
2020/12/03 04:28:35;;;;;;;28.73;21.07;;;5.00;40.70;;;;;;5069242;28;20437;-67
2020/12/03 04:31:01;;;;;;;29.53;20.60;;;5.00;40.50;;;;;;5069406;28;20460;-67
2020/12/03 04:33:26;;;;;;;26.30;20.83;;;5.10;40.20;;;;;;5069576;28;20181;-67
2020/12/03 04:35:53;;;;;;;28.63;20.03;;;5.00;40.70;;;;;;5069374;28;20704;-67
2020/12/03 04:38:18;;;;;;;28.23;19.93;;;5.00;40.30;;;;;;5069200;28;20175;-67
2020/12/03 04:40:45;;;;;;;28.67;21.17;;;5.10;40.40;;;;;;5069282;28;20409;-67
2020/12/03 04:43:37;;;;;;;25.40;19.23;;;5.10;40.70;;;;;;5069316;28;20186;-66
2020/12/03 04:46:29;;;;;;;25.57;18.30;;;5.30;40.30;;;;;;5067155;28;21129;-68
2020/12/03 04:49:25;;;;;;;29.20;21.10;;;5.20;40.10;;;;;;5069210;28;20418;-67
2020/12/03 04:52:27;;;;;;;26.00;19.30;;;5.10;40.70;;;;;;5069171;28;20429;-68
2020/12/03 04:55:22;;;;;;;22.60;17.27;;;5.30;40.20;;;;;;5061838;28;20780;-64
2020/12/03 04:58:03;;;;;;;24.03;19.50;;;5.10;40.80;;;;;;5067991;28;20492;-67
2020/12/03 05:00:40;;;;;;;28.50;20.17;;;5.10;41.20;;;;;;5089106;28;20785;-68
2020/12/03 05:03:24;;;;;;;24.87;19.50;;;5.20;41.30;;;;;;5090725;28;20412;-67
2020/12/03 05:06:12;;;;;;;26.80;20.23;;;5.30;40.50;;;;;;5089891;28;21002;-67
2020/12/03 05:09:21;;;;;;;25.80;18.23;;;5.30;40.80;;;;;;5091643;28;20872;-67
2020/12/03 05:12:06;;;;;;;28.53;19.00;;;5.50;40.00;;;;;;5055762;28;20448;-68
2020/12/03 05:15:07;;;;;;;24.00;18.47;;;5.50;39.80;;;;;;5098004;28;20411;-68
2020/12/03 05:17:58;;;;;;;21.50;16.40;;;5.20;39.80;;;;;;5095876;28;20723;-67
2020/12/03 05:20:34;;;;;;;19.60;16.23;;;5.30;39.90;;;;;;5097194;28;20824;-67
2020/12/03 05:23:10;;;;;;;23.30;16.43;;;5.40;39.90;;;;;;5096131;28;20447;-69
2020/12/03 05:25:36;;;;;;;24.17;16.33;;;5.50;39.30;;;;;;5095431;28;20438;-68
2020/12/03 05:28:21;;;;;;;17.97;15.30;;;5.50;39.60;;;;;;5093759;28;20892;-68
2020/12/03 05:30:53;;;;;;;19.90;16.40;;;5.60;39.00;;;;;;5095025;28;21090;-68
2020/12/03 05:33:19;;;;;;;22.50;16.47;;;5.70;39.00;;;;;;5094286;28;20918;-67
2020/12/03 05:35:46;;;;;;;20.17;17.13;;;5.80;39.10;;;;;;5094300;28;20450;-66
2020/12/03 05:38:25;;;;;;;18.37;15.40;;;5.80;39.40;;;;;;5094395;28;20273;-64
2020/12/03 05:41:03;;;;;;;16.73;14.37;;;5.40;38.80;;;;;;5094060;28;20419;-64
2020/12/03 05:43:30;;;;;;;19.17;14.30;;;5.60;39.00;;;;;;5093937;28;20810;-64
2020/12/03 05:46:02;;;;;;;16.43;14.70;;;5.70;38.80;;;;;;5092969;28;20454;-67
2020/12/03 05:48:28;;;;;;;13.93;12.50;;;5.80;38.30;;;;;;5093186;28;20408;-68
2020/12/03 05:50:55;;;;;;;15.60;13.97;;;5.60;38.60;;;;;;5093840;28;20418;-66
2020/12/03 05:53:25;;;;;;;17.67;13.77;;;5.60;39.00;;;;;;5094229;28;20644;-66
2020/12/03 05:55:51;;;;;;;16.27;13.00;;;5.80;38.20;;;;;;5094166;28;20413;-66
2020/12/03 05:58:17;;;;;;;13.60;11.83;;;5.90;37.30;;;;;;5093807;28;20414;-66
2020/12/03 06:00:44;;;;;;;15.73;13.57;;;5.90;36.90;;;;;;5093943;28;20496;-67
2020/12/03 06:03:42;;;;;;;13.83;11.83;;;6.00;36.60;;;;;;5093861;28;20184;-65
2020/12/03 06:06:54;;;;;;;16.83;12.40;;;6.00;36.30;;;;;;5093816;28;20454;-66
2020/12/03 06:09:51;;;;;;;14.00;11.40;;;6.10;36.00;;;;;;5093698;28;20906;-67
2020/12/03 06:12:51;;;;;;;12.30;11.00;;;6.10;35.50;;;;;;5093775;28;20431;-66
2020/12/03 06:15:41;;;;;;;15.37;12.03;;;6.10;35.90;;;;;;5093678;28;20400;-66
2020/12/03 06:18:49;;;;;;;10.93;9.80;;;6.00;35.80;;;;;;5093493;28;20444;-66
2020/12/03 06:21:34;;;;;;;12.17;10.30;;;6.20;34.70;;;;;;5092522;28;20416;-66
2020/12/03 06:24:25;;;;;;;12.67;10.50;;;6.00;34.80;;;;;;5093470;28;20427;-66
2020/12/03 06:27:21;;;;;;;14.53;11.27;;;6.30;35.10;;;;;;5093216;28;20455;-65
2020/12/03 06:30:03;;;;;;;18.50;12.70;;;5.90;34.90;;;;;;5093322;28;20405;-66
2020/12/03 06:32:55;;;;;;;13.97;10.20;;;5.70;36.00;;;;;;5093094;28;20431;-66
2020/12/03 06:35:56;;;;;;;13.77;9.07;;;6.00;35.10;;;;;;5054750;28;20423;-66
2020/12/03 06:38:33;;;;;;;10.10;9.10;;;6.10;33.90;;;;;;5093237;28;20407;-66
2020/12/03 06:41:32;;;;;;;11.47;10.27;;;6.40;33.40;;;;;;5093141;28;20872;-66
2020/12/03 06:44:18;;;;;;;13.50;9.63;;;6.30;34.20;;;;;;5093143;28;20415;-66
2020/12/03 06:47:24;;;;;;;15.50;12.10;;;6.70;40.70;;;;;;5092995;28;20544;-67
2020/12/03 06:49:55;;;;;;;17.10;10.80;;;6.70;39.90;;;;;;5081738;28;20418;-67
2020/12/03 06:52:40;;;;;;;12.63;9.67;;;7.10;43.70;;;;;;5092755;28;20473;-67
2020/12/03 06:55:41;;;;;;;11.13;9.80;;;7.70;38.80;;;;;;5092976;28;20806;-67
2020/12/03 06:58:25;;;;;;;10.90;9.27;;;7.50;40.50;;;;;;5092636;28;20412;-67
2020/12/03 07:01:20;;;;;;;10.60;9.47;;;7.50;35.00;;;;;;5092650;28;20721;-67
2020/12/03 07:04:21;;;;;;;10.87;9.53;;;7.80;40.80;;;;;;5092703;28;20448;-67
2020/12/03 07:07:12;;;;;;;11.83;10.77;;;8.70;40.60;;;;;;5092386;28;20942;-67
2020/12/03 07:10:15;;;;;;;12.40;10.40;;;8.70;35.60;;;;;;5092599;28;20913;-67
2020/12/03 07:13:20;;;;;;;12.77;11.07;;;8.60;40.00;;;;;;5092350;28;20428;-66
2020/12/03 07:16:04;;;;;;;12.40;11.17;;;7.90;30.20;;;;;;5092441;28;20431;-66
2020/12/03 07:19:05;;;;;;;14.00;12.50;;;7.30;31.90;;;;;;5092181;28;20467;-66
2020/12/03 07:21:54;;;;;;;15.90;12.17;;;7.20;32.10;;;;;;5092335;28;20424;-66
2020/12/03 07:24:28;;;;;;;18.90;13.33;;;7.00;32.80;;;;;;5092368;28;20517;-66
2020/12/03 07:27:22;;;;;;;13.97;12.43;;;6.80;33.20;;;;;;5092471;28;20477;-65
2020/12/03 07:30:00;;;;;;;14.53;12.30;;;6.70;33.70;;;;;;5092474;28;20424;-65
2020/12/03 07:32:31;;;;;;;17.93;12.20;;;6.70;34.40;;;;;;5091966;28;20469;-65
2020/12/03 07:35:30;;;;;;;12.03;10.90;;;6.40;34.90;;;;;;5092207;28;20499;-65
2020/12/03 07:38:31;;;;;;;13.00;11.70;;;6.60;33.90;;;;;;5092060;28;20416;-66
2020/12/03 07:40:57;;;;;;;15.03;11.10;;;6.50;33.70;;;;;;5092266;28;20501;-66
2020/12/03 07:43:39;;;;;;;12.40;11.10;;;6.50;34.00;;;;;;5092264;28;20410;-65
2020/12/03 07:46:23;;;;;;;11.43;10.27;;;6.60;33.70;;;;;;5091780;28;20501;-65
2020/12/03 07:48:48;;;;;;;19.73;11.60;;;6.30;33.90;;;;;;5091727;28;21043;-64
2020/12/03 07:51:16;;;;;;;11.73;10.53;;;6.50;33.90;;;;;;5091914;28;20453;-65
2020/12/03 07:53:42;;;;;;;12.23;11.00;;;6.20;34.10;;;;;;5091844;28;20189;-65
2020/12/03 07:56:26;;;;;;;12.20;10.80;;;6.00;35.30;;;;;;5092001;28;20400;-65
2020/12/03 07:58:52;;;;;;;12.80;11.27;;;6.00;35.90;;;;;;5091372;28;20637;-65
2020/12/03 08:01:20;;;;;;;11.13;10.03;;;6.00;36.70;;;;;;5091444;28;20443;-66
2020/12/03 08:03:50;;;;;;;17.40;10.50;;;6.20;35.50;;;;;;5091797;28;20939;-65
2020/12/03 08:06:29;;;;;;;12.20;10.90;;;6.20;33.80;;;;;;5091529;28;20985;-65
2020/12/03 08:09:01;;;;;;;12.50;9.67;;;5.90;34.40;;;;;;5091411;28;20396;-66
2020/12/03 08:11:45;;;;;;;12.50;10.40;;;6.10;35.00;;;;;;5091380;28;20441;-65
2020/12/03 08:14:29;;;;;;;10.80;8.90;;;5.80;34.70;;;;;;5091714;28;20407;-66
2020/12/03 08:16:57;;;;;;;12.27;9.83;;;5.80;34.00;;;;;;5091263;28;20405;-66
2020/12/03 08:19:32;;;;;;;8.60;7.80;;;6.00;34.10;;;;;;5091077;28;20487;-65
2020/12/03 08:21:59;;;;;;;8.53;7.73;;;6.10;31.10;;;;;;5091480;28;20517;-65
2020/12/03 08:24:33;;;;;;;8.20;7.40;;;6.30;31.10;;;;;;5091225;28;20446;-65
2020/12/03 08:27:17;;;;;;;11.47;8.47;;;6.50;29.70;;;;;;5090886;28;20511;-64
2020/12/03 08:29:42;;;;;;;10.67;7.43;;;6.40;30.00;;;;;;5091161;28;20494;-65
2020/12/03 08:32:08;;;;;;;9.07;8.10;;;6.20;31.10;;;;;;5090742;28;20846;-64
2020/12/03 08:34:38;;;;;;;10.90;9.80;;;6.10;32.00;;;;;;5090945;28;20194;-64
2020/12/03 08:37:08;;;;;;;9.30;8.50;;;6.00;32.00;;;;;;5090947;28;20193;-63
2020/12/03 08:39:33;;;;;;;10.60;7.97;;;6.10;31.60;;;;;;5090942;28;20400;-64
2020/12/03 08:42:00;;;;;;;9.73;8.73;;;5.90;32.40;;;;;;5090901;28;20931;-64
2020/12/03 08:44:28;;;;;;;10.40;9.00;;;5.90;32.80;;;;;;5090095;28;20208;-64
2020/12/03 08:46:58;;;;;;;9.53;8.63;;;5.60;33.20;;;;;;5089281;28;20458;-66
2020/12/03 08:49:24;;;;;;;10.80;9.70;;;5.20;35.10;;;;;;5091413;28;20907;-67
2020/12/03 08:51:52;;;;;;;8.53;7.70;;;5.40;34.50;;;;;;5111262;28;20472;-64
2020/12/03 08:54:28;;;;;;;14.27;9.40;;;5.60;33.50;;;;;;5111266;28;20404;-66
2020/12/03 08:57:02;;;;;;;13.33;8.37;;;5.60;33.50;;;;;;5104953;28;20855;-68
2020/12/03 08:59:33;;;;;;;10.10;9.10;;;5.30;34.80;;;;;;5090620;28;20412;-66
2020/12/03 09:02:06;;;;;;;12.77;10.00;;;5.30;35.50;;;;;;5090746;28;20428;-67
2020/12/03 09:04:34;;;;;;;10.63;9.63;;;5.50;35.40;;;;;;5091464;28;20466;-65
2020/12/03 09:07:05;;;;;;;12.63;10.50;;;5.30;37.60;;;;;;5091289;28;20531;-68
2020/12/03 09:09:31;;;;;;;12.47;10.27;;;5.30;36.80;;;;;;5090838;28;20412;-67
2020/12/03 09:11:57;;;;;;;12.90;10.93;;;5.10;37.00;;;;;;5090799;28;20425;-67
2020/12/03 09:14:26;;;;;;;15.83;11.40;;;4.80;38.20;;;;;;5091147;28;20507;-67
2020/12/03 09:17:05;;;;;;;15.23;13.07;;;4.80;38.30;;;;;;5090853;28;20496;-65
2020/12/03 09:19:30;;;;;;;11.03;9.93;;;4.90;38.80;;;;;;5090706;28;20417;-64
2020/12/03 09:21:58;;;;;;;11.87;10.27;;;4.80;37.80;;;;;;5090732;28;20443;-66
2020/12/03 09:24:25;;;;;;;11.97;10.83;;;5.00;37.70;;;;;;5090973;28;20482;-67
2020/12/03 09:26:51;;;;;;;13.23;11.80;;;4.90;37.60;;;;;;5091391;28;20553;-67
2020/12/03 09:29:19;;;;;;;12.97;10.50;;;5.40;37.10;;;;;;5091981;28;20408;-65
2020/12/03 09:31:44;;;;;;;14.67;11.57;;;5.30;36.50;;;;;;5090221;28;20420;-65
2020/12/03 09:34:11;;;;;;;13.23;12.03;;;5.30;36.00;;;;;;5090178;28;20431;-65
2020/12/03 09:36:38;;;;;;;11.80;9.97;;;5.20;36.00;;;;;;5090282;28;20441;-65
2020/12/03 09:39:04;;;;;;;13.20;11.90;;;5.50;35.80;;;;;;5090255;28;20423;-67
2020/12/03 09:41:32;;;;;;;10.37;9.37;;;5.40;34.70;;;;;;5090439;28;20429;-67
2020/12/03 09:44:02;;;;;;;12.40;10.60;;;5.70;34.60;;;;;;5090422;28;20408;-67
2020/12/03 09:46:32;;;;;;;12.27;10.97;;;5.80;34.80;;;;;;5090237;28;20449;-66
2020/12/03 09:49:00;;;;;;;13.33;11.67;;;5.90;34.50;;;;;;5090240;28;20405;-66
2020/12/03 09:51:25;;;;;;;11.57;10.40;;;5.70;35.40;;;;;;5090225;28;20428;-66
2020/12/03 09:53:52;;;;;;;11.63;10.37;;;5.90;33.70;;;;;;5090461;28;20484;-66
2020/12/03 09:56:20;;;;;;;11.50;10.40;;;6.00;35.00;;;;;;5091863;28;20233;-66
2020/12/03 09:58:56;;;;;;;13.73;10.97;;;5.70;33.90;;;;;;5094027;28;20412;-67
2020/12/03 10:01:46;;;;;;;12.00;10.67;;;5.90;34.70;;;;;;5095394;28;20516;-66
2020/12/03 10:04:42;;;;;;;12.40;11.07;;;6.20;34.40;;;;;;5094404;28;20842;-65
2020/12/03 10:07:23;;;;;;;10.60;9.60;;;6.20;33.90;;;;;;5093630;28;20529;-65
2020/12/03 10:10:10;;;;;;;12.70;11.37;;;6.50;33.40;;;;;;5093763;28;20416;-66
2020/12/03 10:13:20;;;;;;;10.40;9.20;;;6.40;32.20;;;;;;5093465;28;20452;-63
2020/12/03 10:15:59;;;;;;;13.50;9.87;;;6.50;32.00;;;;;;5093652;28;20450;-62
2020/12/03 10:18:36;;;;;;;14.90;12.83;;;6.40;32.20;;;;;;5093584;28;20397;-67
2020/12/03 10:21:01;;;;;;;12.77;11.40;;;6.60;32.50;;;;;;5093678;28;21075;-67
2020/12/03 10:23:42;;;;;;;15.70;11.10;;;6.60;32.00;;;;;;5093331;28;20487;-64
2020/12/03 10:26:16;;;;;;;10.90;9.30;;;6.10;32.80;;;;;;5093370;28;20217;-64
2020/12/03 10:29:14;;;;;;;13.67;10.40;;;6.30;33.40;;;;;;5092937;28;20410;-68
2020/12/03 10:31:42;;;;;;;12.33;10.43;;;6.40;32.20;;;;;;5060284;28;20927;-67
2020/12/03 10:34:10;;;;;;;11.50;10.00;;;6.30;33.00;;;;;;5093934;28;20933;-67
2020/12/03 10:36:56;;;;;;;11.27;9.97;;;6.10;32.30;;;;;;5095360;28;20471;-67
2020/12/03 10:39:32;;;;;;;11.83;10.70;;;5.90;32.80;;;;;;5094885;28;20487;-66
2020/12/03 10:42:00;;;;;;;10.37;9.27;;;5.70;33.60;;;;;;5093455;28;20475;-67
2020/12/03 10:44:28;;;;;;;12.73;11.43;;;5.80;33.30;;;;;;5093827;28;20409;-65
2020/12/03 10:47:05;;;;;;;13.00;10.17;;;5.40;33.80;;;;;;5093779;28;20452;-66
2020/12/03 10:49:35;;;;;;;13.67;11.00;;;5.70;33.60;;;;;;5094321;28;20463;-67
2020/12/03 10:52:04;;;;;;;10.13;9.13;;;5.80;32.90;;;;;;5092976;28;20420;-68
2020/12/03 10:54:33;;;;;;;10.93;9.83;;;6.00;33.40;;;;;;5093127;28;20449;-66
2020/12/03 10:57:15;;;;;;;12.10;8.70;;;6.50;32.30;;;;;;5093018;28;20450;-68
2020/12/03 10:59:41;;;;;;;11.23;10.00;;;6.00;30.30;;;;;;5092894;28;20415;-66
2020/12/03 11:02:26;;;;;;;9.87;8.53;;;5.80;32.30;;;;;;5093565;28;20493;-65
2020/12/03 11:04:53;;;;;;;10.03;9.00;;;6.10;31.80;;;;;;5093102;28;20539;-67
2020/12/03 11:07:18;;;;;;;12.27;9.10;;;5.70;32.00;;;;;;5092125;28;20452;-67
2020/12/03 11:09:54;;;;;;;10.67;9.57;;;5.60;32.90;;;;;;5092651;28;20404;-66
2020/12/03 11:12:21;;;;;;;13.10;11.17;;;6.00;32.60;;;;;;5092776;28;20537;-68
2020/12/03 11:14:47;;;;;;;9.53;8.57;;;5.90;32.00;;;;;;5092439;28;20419;-69
2020/12/03 11:17:22;;;;;;;8.97;7.80;;;6.10;31.50;;;;;;5092237;28;20831;-67
2020/12/03 11:19:56;;;;;;;12.03;10.03;;;5.80;32.30;;;;;;5092152;28;20408;-68
2020/12/03 11:22:37;;;;;;;10.03;9.00;;;5.90;31.30;;;;;;5092298;28;20419;-68
2020/12/03 11:25:08;;;;;;;9.40;8.40;;;6.30;30.80;;;;;;5092089;28;20413;-68
2020/12/03 11:27:36;;;;;;;10.07;9.13;;;6.00;30.60;;;;;;5091838;28;20858;-68
2020/12/03 11:30:18;;;;;;;10.63;9.63;;;6.00;32.70;;;;;;5092555;28;20404;-66
2020/12/03 11:32:52;;;;;;;9.53;8.23;;;6.20;32.40;;;;;;5092191;28;20769;-68
2020/12/03 11:35:26;;;;;;;12.57;8.80;;;6.20;31.30;;;;;;5092172;28;20879;-66
2020/12/03 11:37:54;;;;;;;9.80;8.80;;;5.90;31.40;;;;;;5091898;28;20961;-67
2020/12/03 11:40:53;;;;;;;9.23;8.33;;;5.70;31.80;;;;;;5092330;28;20415;-66
2020/12/03 11:48:53;;;;;;;11.33;9.40;;;5.90;33.20;;;;;;5092605;28;20427;-67
2020/12/03 11:51:37;;;;;;;9.53;8.53;;;5.90;31.80;;;;;;5092182;28;20829;-66
2020/12/03 11:54:06;;;;;;;8.70;7.60;;;5.90;32.60;;;;;;5091879;28;20405;-68
2020/12/03 11:56:33;;;;;;;9.30;7.87;;;6.00;31.30;;;;;;5091661;28;20419;-66
2020/12/03 11:59:18;;;;;;;10.90;8.13;;;5.80;31.90;;;;;;5091546;28;20412;-67
2020/12/03 12:01:58;;;;;;;11.30;8.57;;;6.10;31.60;;;;;;5091880;28;20594;-67
2020/12/03 12:04:45;;;;;;;8.27;7.03;;;6.40;30.10;;;;;;5091312;28;20779;-68
2020/12/03 12:07:36;;;;;;;11.13;8.93;;;6.20;30.90;;;;;;5091384;28;20480;-68
2020/12/03 12:12:32;;;;;;;8.70;7.80;;;6.60;30.30;;;;;;5091653;28;20983;-66
2020/12/03 12:14:58;;;;;;;8.50;7.57;;;6.70;30.20;;;;;;5091698;28;20442;-66
2020/12/03 12:17:23;;;;;;;11.90;8.73;;;6.80;31.20;;;;;;5091247;28;20767;-67
2020/12/03 12:19:53;;;;;;;9.43;8.50;;;6.30;31.10;;;;;;5091281;28;20573;-66
2020/12/03 12:22:18;;;;;;;10.73;7.30;;;6.20;30.60;;;;;;5091412;28;20235;-67
2020/12/03 12:24:45;;;;;;;8.87;7.63;;;6.30;31.10;;;;;;5091204;28;20851;-65
2020/12/03 12:27:11;;;;;;;14.13;8.47;;;6.40;31.00;;;;;;5090871;28;20219;-64
2020/12/03 12:29:37;;;;;;;11.20;7.80;;;6.50;31.10;;;;;;5091221;28;20435;-66
2020/12/03 12:32:04;;;;;;;15.50;14.00;;;6.60;30.40;;;;;;5090963;28;20498;-66
2020/12/03 12:34:30;;;;;;;14.03;9.00;;;6.50;30.20;;;;;;5091178;28;20627;-66
2020/12/03 12:36:56;;;;;;;9.40;8.50;;;6.60;30.90;;;;;;5091185;28;20412;-65
2020/12/03 12:39:22;;;;;;;11.63;8.17;;;6.20;30.80;;;;;;5092011;28;20477;-67
2020/12/03 12:41:58;;;;;;;12.63;8.60;;;6.30;32.00;;;;;;5091191;28;20198;-66
2020/12/03 12:44:23;;;;;;;8.03;7.33;;;6.50;31.80;;;;;;5090817;28;20276;-66
2020/12/03 12:46:53;;;;;;;8.33;7.63;;;6.30;31.90;;;;;;5090917;28;20562;-65
2020/12/03 12:49:19;;;;;;;7.87;7.10;;;5.70;32.40;;;;;;5091017;28;20660;-67
2020/12/03 12:51:44;;;;;;;9.73;8.37;;;5.80;32.90;;;;;;5090825;28;20482;-68
2020/12/03 12:54:10;;;;;;;7.83;7.13;;;5.70;33.30;;;;;;5084079;28;20722;-68
2020/12/03 12:56:35;;;;;;;9.43;8.53;;;5.60;34.00;;;;;;5078774;28;20680;-65
2020/12/03 12:59:01;;;;;;;9.47;7.37;;;6.00;34.10;;;;;;5079351;28;20706;-65
2020/12/03 13:01:27;;;;;;;9.57;8.50;;;6.00;33.90;;;;;;5078079;28;20855;-67
2020/12/03 13:03:53;;;;;;;12.47;8.53;;;6.10;32.90;;;;;;5078233;28;20691;-66
2020/12/03 13:06:18;;;;;;;9.20;7.90;;;6.10;32.80;;;;;;5080286;28;20522;-66
2020/12/03 13:08:44;;;;;;;8.97;8.07;;;6.10;33.10;;;;;;5079701;28;20173;-67
2020/12/03 13:11:09;;;;;;;10.17;8.27;;;6.40;33.10;;;;;;5078527;28;20602;-64
2020/12/03 13:13:35;;;;;;;8.70;7.80;;;6.30;32.30;;;;;;5080251;28;20189;-67
2020/12/03 13:16:02;;;;;;;10.57;7.90;;;6.40;32.80;;;;;;5079403;28;20179;-66
2020/12/03 13:18:27;;;;;;;14.63;7.87;;;6.50;32.40;;;;;;5079374;28;20220;-66